Time;durP1;ratioP1;P1;durP2;ratioP2;P2;SDS_P1;SDS_P2;PMS_P1;PMS_P2;Temp;Humidity;BMP_temperature;BMP_pressure;BME280_temperature;BME280_humidity;BME280_pressure;Samples;Min_cycle;Max_cycle;Signal;HPM_P1;HPM_P2
2022/05/03 00:00:05;;;;;;;11.27;6.97;;;15.30;80.40;;;;;;7377776;19;20618;-48
2022/05/03 00:02:46;;;;;;;8.03;7.03;;;15.30;80.10;;;;;;7377087;19;20372;-48
2022/05/03 00:05:27;;;;;;;8.53;6.80;;;15.20;79.90;;;;;;7371297;19;20392;-48
2022/05/03 00:08:06;;;;;;;7.27;6.53;;;15.10;81.30;;;;;;7375245;19;20476;-48
2022/05/03 00:10:47;;;;;;;7.80;6.80;;;15.20;81.40;;;;;;7373786;19;21186;-48
2022/05/03 00:13:25;;;;;;;7.97;7.17;;;15.30;81.30;;;;;;7375270;19;20392;-48
2022/05/03 00:15:57;;;;;;;8.70;7.43;;;15.30;81.20;;;;;;7377193;19;20410;-48
2022/05/03 00:18:26;;;;;;;8.97;6.93;;;15.10;81.50;;;;;;7376075;19;20457;-48
2022/05/03 00:21:01;;;;;;;6.37;5.77;;;14.90;82.60;;;;;;7369698;19;20395;-49
2022/05/03 00:23:30;;;;;;;6.87;6.27;;;14.90;83.10;;;;;;7372430;19;20408;-48
2022/05/03 00:26:00;;;;;;;8.97;7.67;;;15.00;82.60;;;;;;7376470;19;20922;-48
2022/05/03 00:28:33;;;;;;;8.00;7.17;;;14.90;82.70;;;;;;7378151;19;20376;-49
2022/05/03 00:31:04;;;;;;;7.23;6.53;;;15.00;83.10;;;;;;7375444;19;20973;-49
2022/05/03 00:33:36;;;;;;;8.00;6.70;;;15.00;83.10;;;;;;7381872;19;20944;-48
2022/05/03 00:36:07;;;;;;;8.10;7.17;;;14.90;83.50;;;;;;7379132;19;22218;-48
2022/05/03 00:38:41;;;;;;;7.77;6.80;;;14.90;84.20;;;;;;7384139;19;20729;-48
2022/05/03 00:41:13;;;;;;;7.73;6.90;;;14.90;83.50;;;;;;7383416;19;20413;-48
2022/05/03 00:44:00;;;;;;;8.03;7.17;;;14.80;83.90;;;;;;7382077;19;20376;-48
2022/05/03 00:46:38;;;;;;;8.33;6.33;;;14.60;84.80;;;;;;7381430;19;20379;-49
2022/05/03 00:49:27;;;;;;;8.60;7.73;;;14.50;85.70;;;;;;7382413;19;20368;-48
2022/05/03 00:52:03;;;;;;;9.93;7.37;;;14.40;85.70;;;;;;7382127;19;20380;-48
2022/05/03 00:54:46;;;;;;;7.60;6.80;;;14.40;86.30;;;;;;7379096;19;20407;-50
2022/05/03 00:57:28;;;;;;;7.97;7.17;;;14.40;85.90;;;;;;7379454;19;20404;-48
2022/05/03 01:00:13;;;;;;;8.70;7.60;;;14.50;85.40;;;;;;7383599;19;20833;-48
2022/05/03 01:03:04;;;;;;;10.40;7.17;;;14.40;85.00;;;;;;7380616;19;20762;-48
2022/05/03 01:05:46;;;;;;;8.83;8.00;;;14.40;85.40;;;;;;7379024;19;20403;-48
2022/05/03 01:08:25;;;;;;;9.23;7.70;;;14.30;85.40;;;;;;7382202;19;20410;-48
2022/05/03 01:11:10;;;;;;;7.70;6.90;;;14.20;85.80;;;;;;7379421;19;20471;-48
2022/05/03 01:13:50;;;;;;;8.97;7.77;;;14.20;86.10;;;;;;7381792;19;20380;-48
2022/05/03 01:16:29;;;;;;;10.30;7.70;;;14.20;86.30;;;;;;7378256;19;20387;-48
2022/05/03 01:19:07;;;;;;;8.87;7.97;;;14.20;86.40;;;;;;7371711;19;20428;-48
2022/05/03 01:21:59;;;;;;;13.50;8.50;;;14.30;86.20;;;;;;7378209;19;20374;-48
2022/05/03 01:24:40;;;;;;;9.37;8.40;;;14.20;86.10;;;;;;7380857;19;21354;-48
2022/05/03 01:27:34;;;;;;;11.00;9.13;;;14.00;86.70;;;;;;7382681;19;20372;-48
2022/05/03 01:30:07;;;;;;;11.00;8.10;;;14.00;87.50;;;;;;7379021;19;20936;-50
2022/05/03 01:32:44;;;;;;;11.70;9.60;;;13.90;87.70;;;;;;7382862;19;20396;-48
2022/05/03 01:35:16;;;;;;;12.03;10.63;;;13.90;87.90;;;;;;7377566;19;20397;-48
2022/05/03 01:38:08;;;;;;;14.90;11.83;;;13.80;88.60;;;;;;7383640;19;20384;-50
2022/05/03 01:40:52;;;;;;;12.47;10.30;;;13.80;89.20;;;;;;7380912;19;20357;-48
2022/05/03 01:43:32;;;;;;;11.40;10.17;;;13.60;89.70;;;;;;7380121;19;20936;-49
2022/05/03 01:46:18;;;;;;;14.27;12.07;;;13.50;90.10;;;;;;7383298;19;20408;-48
2022/05/03 01:51:58;;;;;;;14.27;12.53;;;13.10;91.30;;;;;;7381820;19;20404;-48
2022/05/03 01:54:47;;;;;;;16.70;12.90;;;13.00;91.90;;;;;;7377678;19;21037;-48
2022/05/03 01:57:30;;;;;;;15.07;12.20;;;12.90;92.30;;;;;;7382095;19;20480;-48
2022/05/03 02:00:08;;;;;;;16.50;12.20;;;13.00;92.30;;;;;;7378232;19;20375;-48
2022/05/03 02:03:04;;;;;;;16.97;13.67;;;13.00;92.40;;;;;;7381843;19;20897;-49
2022/05/03 02:05:55;;;;;;;17.27;13.00;;;12.90;92.40;;;;;;7381172;19;20387;-50
2022/05/03 02:08:26;;;;;;;15.67;13.10;;;13.00;92.60;;;;;;7379034;19;20762;-50
2022/05/03 02:11:09;;;;;;;16.73;12.73;;;12.90;92.60;;;;;;7378312;19;20372;-48
2022/05/03 02:16:46;;;;;;;16.43;13.20;;;13.10;92.30;;;;;;7379691;19;20398;-48
2022/05/03 02:19:40;;;;;;;18.90;15.20;;;13.10;92.00;;;;;;7376714;19;20525;-48
2022/05/03 02:22:29;;;;;;;17.97;15.37;;;13.10;92.40;;;;;;7375442;19;20898;-48
2022/05/03 02:25:10;;;;;;;19.67;13.70;;;12.90;92.70;;;;;;7378469;19;20384;-48
2022/05/03 02:27:49;;;;;;;15.87;13.87;;;13.00;92.70;;;;;;7379619;19;20372;-48
2022/05/03 02:30:20;;;;;;;18.63;14.43;;;13.00;92.40;;;;;;7376076;19;20380;-40
2022/05/03 02:33:02;;;;;;;18.30;15.37;;;12.90;92.40;;;;;;7377791;19;20372;-40
2022/05/03 02:35:37;;;;;;;17.03;14.03;;;12.90;92.90;;;;;;7377357;19;20451;-40
2022/05/03 02:38:10;;;;;;;19.10;15.00;;;12.80;93.50;;;;;;7377911;19;20826;-40
2022/05/03 02:40:46;;;;;;;18.23;15.60;;;12.80;93.10;;;;;;7379265;19;20383;-40
2022/05/03 02:43:20;;;;;;;20.40;14.97;;;13.10;92.70;;;;;;7377989;19;20383;-40
2022/05/03 02:45:54;;;;;;;18.37;15.37;;;13.10;92.20;;;;;;7379767;19;20373;-40
2022/05/03 02:48:35;;;;;;;18.47;14.23;;;13.10;92.20;;;;;;7377479;19;20372;-40
2022/05/03 02:51:10;;;;;;;16.93;14.07;;;13.10;92.20;;;;;;7376795;19;20368;-40
2022/05/03 02:53:45;;;;;;;18.57;14.73;;;13.00;92.40;;;;;;7377834;19;20376;-40
2022/05/03 02:56:24;;;;;;;18.43;13.93;;;13.00;92.60;;;;;;7377293;19;20368;-40
2022/05/03 02:59:07;;;;;;;16.50;13.43;;;12.90;92.30;;;;;;7378087;19;20397;-41
2022/05/03 03:01:52;;;;;;;19.07;14.60;;;12.90;92.40;;;;;;7378284;19;20384;-40
2022/05/03 03:04:38;;;;;;;20.00;15.77;;;12.80;92.80;;;;;;7373398;19;20938;-40
2022/05/03 03:07:19;;;;;;;19.00;14.80;;;12.90;92.80;;;;;;7378084;19;20808;-40
2022/05/03 03:09:58;;;;;;;20.47;15.00;;;12.90;92.40;;;;;;7375970;19;20367;-48
2022/05/03 03:12:39;;;;;;;19.77;15.87;;;12.90;92.50;;;;;;7376279;19;20379;-48
2022/05/03 03:15:11;;;;;;;19.60;15.53;;;12.80;92.90;;;;;;7376740;19;20404;-49
2022/05/03 03:17:44;;;;;;;19.57;15.47;;;12.70;93.20;;;;;;7372701;19;20372;-48
2022/05/03 03:20:15;;;;;;;18.07;16.17;;;12.50;93.60;;;;;;7375143;19;21285;-49
2022/05/03 03:22:48;;;;;;;22.00;15.87;;;12.60;93.60;;;;;;7374708;19;20491;-49
2022/05/03 03:25:23;;;;;;;19.13;15.30;;;12.70;93.40;;;;;;7374318;19;20368;-49
2022/05/03 03:27:55;;;;;;;23.63;15.97;;;12.70;93.20;;;;;;7377151;19;20725;-48
2022/05/03 03:30:25;;;;;;;20.47;15.90;;;12.80;92.90;;;;;;7376403;19;20823;-48
2022/05/03 03:33:01;;;;;;;19.60;16.80;;;12.80;92.90;;;;;;7374952;19;20794;-49
2022/05/03 03:35:34;;;;;;;19.10;14.43;;;12.80;93.10;;;;;;7373332;19;20394;-49
2022/05/03 03:38:12;;;;;;;18.80;14.97;;;12.90;93.00;;;;;;7377317;19;20458;-48
2022/05/03 03:40:45;;;;;;;19.20;15.83;;;13.00;92.70;;;;;;7375478;19;20375;-40
2022/05/03 03:43:15;;;;;;;20.93;15.33;;;13.00;92.30;;;;;;7375330;19;20922;-40
2022/05/03 03:45:49;;;;;;;20.13;15.40;;;13.00;92.60;;;;;;7374232;19;20382;-40
2022/05/03 03:48:24;;;;;;;17.57;14.33;;;12.70;93.40;;;;;;7374292;19;20372;-39
2022/05/03 03:51:00;;;;;;;18.90;14.90;;;12.60;93.70;;;;;;7376419;19;20825;-40
2022/05/03 03:53:33;;;;;;;18.90;16.07;;;12.60;94.00;;;;;;7376937;19;21343;-40
2022/05/03 03:56:03;;;;;;;24.13;15.27;;;12.50;94.00;;;;;;7373181;19;20410;-40
2022/05/03 03:58:33;;;;;;;18.27;15.00;;;12.60;94.10;;;;;;7377310;19;20428;-40
2022/05/03 04:01:05;;;;;;;18.30;14.53;;;12.60;94.10;;;;;;7375543;19;20898;-40
2022/05/03 04:03:39;;;;;;;20.20;15.93;;;12.60;94.10;;;;;;7372075;19;20372;-40
2022/05/03 04:06:11;;;;;;;19.43;16.60;;;12.60;94.00;;;;;;7381791;19;20383;-40
2022/05/03 04:08:46;;;;;;;20.70;15.80;;;12.30;94.70;;;;;;7383006;19;20376;-40
2022/05/03 04:11:20;;;;;;;22.33;16.60;;;12.20;95.20;;;;;;7380534;19;20794;-48
2022/05/03 04:13:50;;;;;;;20.80;16.20;;;12.20;95.50;;;;;;7382151;19;20437;-48
2022/05/03 04:16:19;;;;;;;19.43;16.57;;;12.20;95.30;;;;;;7376059;19;20411;-48
2022/05/03 04:18:51;;;;;;;19.07;15.60;;;12.40;94.90;;;;;;7377486;19;20411;-48
2022/05/03 04:21:21;;;;;;;20.47;16.17;;;12.50;94.70;;;;;;7379023;19;20375;-49
2022/05/03 04:23:54;;;;;;;18.80;15.17;;;12.50;94.60;;;;;;7379470;19;21288;-48
2022/05/03 04:26:25;;;;;;;20.03;15.57;;;12.50;94.40;;;;;;7383410;19;20402;-48
2022/05/03 04:28:59;;;;;;;17.50;14.77;;;12.60;94.00;;;;;;7382630;19;20505;-49
2022/05/03 04:31:29;;;;;;;22.47;16.47;;;12.50;94.50;;;;;;7377035;19;20454;-48
2022/05/03 04:34:00;;;;;;;21.80;17.00;;;12.40;94.30;;;;;;7383192;19;20411;-48
2022/05/03 04:36:35;;;;;;;18.03;15.57;;;12.30;94.90;;;;;;7379548;19;20415;-48
2022/05/03 04:39:07;;;;;;;21.87;16.70;;;12.30;95.10;;;;;;7378304;19;20416;-49
2022/05/03 04:41:37;;;;;;;25.23;17.97;;;12.40;95.10;;;;;;7381888;19;20471;-48
2022/05/03 04:44:07;;;;;;;21.83;15.37;;;12.40;95.00;;;;;;7379868;19;20459;-49
2022/05/03 04:46:39;;;;;;;20.73;15.67;;;12.40;94.90;;;;;;7377584;19;21001;-48
2022/05/03 04:49:09;;;;;;;20.77;15.83;;;12.50;94.80;;;;;;7383232;19;20392;-48
2022/05/03 04:51:38;;;;;;;19.13;15.30;;;12.60;94.60;;;;;;7381580;19;20427;-50
2022/05/03 04:54:12;;;;;;;20.20;17.23;;;12.70;94.30;;;;;;7379759;19;20383;-48
2022/05/03 04:56:50;;;;;;;23.20;16.20;;;12.70;94.10;;;;;;7380481;19;20408;-49
2022/05/03 04:59:19;;;;;;;22.33;17.53;;;12.80;94.20;;;;;;7379454;19;20404;-48
2022/05/03 05:01:49;;;;;;;22.20;16.00;;;12.80;94.00;;;;;;7379666;19;20394;-48
2022/05/03 05:04:18;;;;;;;22.87;16.87;;;12.80;94.30;;;;;;7381502;19;20889;-48
2022/05/03 05:06:50;;;;;;;20.77;16.77;;;12.80;94.40;;;;;;7382613;19;20376;-48
2022/05/03 05:09:22;;;;;;;21.17;15.97;;;12.90;94.10;;;;;;7382048;19;20416;-48
2022/05/03 05:11:54;;;;;;;21.50;16.87;;;12.80;94.50;;;;;;7379362;19;20422;-49
2022/05/03 05:14:24;;;;;;;20.40;16.80;;;12.80;94.60;;;;;;7380094;19;20504;-50
2022/05/03 05:16:53;;;;;;;23.77;16.93;;;12.90;94.60;;;;;;7378137;19;20424;-49
2022/05/03 05:19:26;;;;;;;23.60;16.40;;;12.90;94.50;;;;;;7380407;19;20416;-49
2022/05/03 05:21:55;;;;;;;18.90;15.47;;;13.00;94.50;;;;;;7380141;19;20988;-48
2022/05/03 05:24:30;;;;;;;20.70;16.33;;;13.10;94.20;;;;;;7379832;19;20971;-48
2022/05/03 05:26:59;;;;;;;16.77;14.13;;;13.10;94.20;;;;;;7381810;19;20395;-48
2022/05/03 05:29:31;;;;;;;26.37;21.40;;;13.20;94.30;;;;;;7375042;19;20962;-48
2022/05/03 05:32:01;;;;;;;22.50;17.00;;;13.30;94.20;;;;;;7376259;19;20408;-49
2022/05/03 05:34:34;;;;;;;21.83;18.07;;;13.40;93.70;;;;;;7382138;19;20737;-48
2022/05/03 05:37:03;;;;;;;21.60;16.90;;;13.40;93.20;;;;;;7379685;19;20689;-48
2022/05/03 05:39:40;;;;;;;19.00;15.77;;;13.60;92.80;;;;;;7381772;19;20447;-48
2022/05/03 05:42:11;;;;;;;20.00;16.80;;;13.60;92.50;;;;;;7377306;19;20393;-48
2022/05/03 05:44:41;;;;;;;23.27;18.30;;;13.70;92.40;;;;;;7378611;19;20412;-48
2022/05/03 05:47:13;;;;;;;21.13;16.83;;;13.70;92.10;;;;;;7379312;19;20754;-48
2022/05/03 05:49:45;;;;;;;21.77;15.90;;;13.80;92.00;;;;;;7381178;19;20409;-48
2022/05/03 05:55:07;;;;;;;20.37;16.00;;;14.30;90.80;;;;;;7381322;19;20487;-48
2022/05/03 05:57:39;;;;;;;22.30;16.60;;;14.40;90.50;;;;;;7374883;19;20819;-48
2022/05/03 06:00:15;;;;;;;17.93;14.33;;;14.60;89.50;;;;;;7379472;19;20415;-48
2022/05/03 06:02:47;;;;;;;18.00;14.87;;;14.80;88.90;;;;;;7379054;19;20380;-48
2022/05/03 06:05:16;;;;;;;20.60;16.43;;;15.10;87.50;;;;;;7380008;19;20983;-48
2022/05/03 06:07:48;;;;;;;17.73;14.67;;;15.30;85.60;;;;;;7377148;19;20860;-48
2022/05/03 06:10:20;;;;;;;16.90;14.90;;;15.50;84.90;;;;;;7378110;19;20403;-49
2022/05/03 06:12:53;;;;;;;15.77;14.00;;;15.80;83.90;;;;;;7378853;19;20379;-48
2022/05/03 06:15:24;;;;;;;17.63;14.07;;;16.00;81.10;;;;;;7379239;19;20726;-48
2022/05/03 06:17:55;;;;;;;24.07;20.03;;;16.10;80.60;;;;;;7376903;19;21230;-48
2022/05/03 06:20:27;;;;;;;22.23;16.57;;;16.20;80.30;;;;;;7376552;19;20384;-49
2022/05/03 06:22:57;;;;;;;18.40;15.30;;;16.30;79.70;;;;;;7375324;19;20445;-48
2022/05/03 06:25:29;;;;;;;19.10;16.10;;;16.40;79.90;;;;;;7378935;19;20373;-50
2022/05/03 06:27:58;;;;;;;16.13;14.07;;;16.50;79.30;;;;;;7375739;19;20401;-49
2022/05/03 06:30:30;;;;;;;15.87;14.27;;;16.70;79.50;;;;;;7378045;19;20388;-49
2022/05/03 06:33:02;;;;;;;17.10;14.83;;;16.90;78.50;;;;;;7380423;19;20376;-50
2022/05/03 06:35:32;;;;;;;17.63;13.10;;;17.10;77.70;;;;;;7376483;19;20747;-49
2022/05/03 06:38:01;;;;;;;15.90;14.20;;;17.30;76.60;;;;;;7377860;19;20380;-49
2022/05/03 06:40:36;;;;;;;21.70;16.07;;;17.30;75.10;;;;;;7378970;19;20361;-49
2022/05/03 06:43:08;;;;;;;16.03;14.33;;;17.60;74.40;;;;;;7374409;19;20478;-49
2022/05/03 06:45:42;;;;;;;20.77;15.80;;;17.70;73.90;;;;;;7379920;19;20376;-49
2022/05/03 06:48:12;;;;;;;19.83;14.60;;;17.70;72.90;;;;;;7378730;19;21595;-49
2022/05/03 06:50:42;;;;;;;18.40;14.77;;;17.60;73.70;;;;;;7377037;19;20988;-49
2022/05/03 06:53:14;;;;;;;16.37;14.50;;;17.80;73.10;;;;;;7376330;19;20376;-47
2022/05/03 06:55:46;;;;;;;14.50;12.83;;;17.90;72.30;;;;;;7375668;19;20491;-50
2022/05/03 06:58:21;;;;;;;15.23;12.77;;;18.10;71.20;;;;;;7375611;19;20381;-48
2022/05/03 07:00:55;;;;;;;13.70;12.30;;;18.20;70.50;;;;;;7376281;19;20443;-50
2022/05/03 07:03:27;;;;;;;15.20;13.60;;;18.40;69.60;;;;;;7376876;19;20380;-48
2022/05/03 07:05:56;;;;;;;18.10;13.40;;;18.50;68.60;;;;;;7377708;19;20949;-47
2022/05/03 07:08:28;;;;;;;14.50;13.00;;;18.60;68.00;;;;;;7375430;19;20380;-47
2022/05/03 07:11:00;;;;;;;14.17;12.53;;;18.60;68.70;;;;;;7374854;19;20377;-48
2022/05/03 07:13:33;;;;;;;15.47;13.17;;;18.70;68.60;;;;;;7374538;19;20415;-47
2022/05/03 07:16:03;;;;;;;13.53;12.13;;;18.70;67.20;;;;;;7378207;19;20376;-48
2022/05/03 07:23:58;;;;;;;13.93;10.80;;;19.00;66.20;;;;;;7375512;19;20395;-48
2022/05/03 07:26:32;;;;;;;12.60;10.67;;;19.20;64.70;;;;;;7378279;19;20384;-48
2022/05/03 07:29:04;;;;;;;11.23;10.13;;;19.40;64.40;;;;;;7375021;19;20375;-48
2022/05/03 07:31:34;;;;;;;12.43;10.70;;;19.60;63.80;;;;;;7379299;19;20985;-48
2022/05/03 07:34:04;;;;;;;11.87;10.30;;;19.70;61.50;;;;;;7373803;19;20390;-48
2022/05/03 07:36:36;;;;;;;13.50;11.90;;;19.80;62.10;;;;;;7376918;19;20376;-48
2022/05/03 07:39:11;;;;;;;15.27;9.97;;;19.70;61.80;;;;;;7376364;19;20447;-48
2022/05/03 07:41:43;;;;;;;9.63;8.73;;;19.90;61.20;;;;;;7377986;19;20918;-48
2022/05/03 07:44:12;;;;;;;10.40;9.17;;;20.10;60.20;;;;;;7374402;19;20378;-48
2022/05/03 07:46:44;;;;;;;9.33;8.27;;;20.40;58.30;;;;;;7376350;19;20380;-48
2022/05/03 07:49:16;;;;;;;7.87;7.17;;;20.70;57.50;;;;;;7378411;19;20379;-48
2022/05/03 07:51:45;;;;;;;6.80;5.97;;;20.80;56.00;;;;;;7375967;19;20413;-48
2022/05/03 07:54:14;;;;;;;7.40;6.70;;;20.80;55.40;;;;;;7375529;19;20368;-48
2022/05/03 07:56:49;;;;;;;7.87;6.73;;;20.70;55.20;;;;;;7373638;19;20384;-50
2022/05/03 07:59:21;;;;;;;7.13;5.90;;;20.80;55.20;;;;;;7372490;19;20974;-48
2022/05/03 08:01:54;;;;;;;8.43;6.40;;;20.70;55.00;;;;;;7376229;19;20382;-48
2022/05/03 08:04:24;;;;;;;7.87;7.07;;;20.70;55.20;;;;;;7375605;19;20373;-48
2022/05/03 08:06:53;;;;;;;6.70;6.10;;;20.70;54.60;;;;;;7376405;19;20388;-48
2022/05/03 08:09:27;;;;;;;8.17;7.37;;;20.70;53.80;;;;;;7375450;19;20452;-48
2022/05/03 08:12:03;;;;;;;7.40;6.70;;;20.80;53.80;;;;;;7374563;19;20405;-48
2022/05/03 08:14:35;;;;;;;6.97;6.27;;;20.90;54.00;;;;;;7376777;19;20379;-48
2022/05/03 08:17:07;;;;;;;5.77;5.03;;;21.10;54.40;;;;;;7373571;19;20381;-49
2022/05/03 08:19:37;;;;;;;6.90;6.03;;;21.70;54.00;;;;;;7373366;19;20436;-48
2022/05/03 08:22:07;;;;;;;11.20;7.30;;;22.30;52.30;;;;;;7374496;19;20412;-48
2022/05/03 08:24:37;;;;;;;5.40;4.90;;;22.80;50.90;;;;;;7371761;19;20372;-48
2022/05/03 08:27:09;;;;;;;6.07;5.57;;;23.10;48.90;;;;;;7376032;19;20376;-49
2022/05/03 08:29:38;;;;;;;6.00;5.40;;;23.40;48.30;;;;;;7376689;19;20368;-49
2022/05/03 08:32:11;;;;;;;5.90;5.03;;;23.70;47.40;;;;;;7376566;19;20424;-49
2022/05/03 08:34:40;;;;;;;5.20;4.77;;;24.20;46.20;;;;;;7372394;19;20386;-48
2022/05/03 08:42:42;;;;;;;5.10;4.70;;;24.70;43.40;;;;;;7373135;19;20391;-48
2022/05/03 08:45:14;;;;;;;9.80;5.50;;;24.70;44.00;;;;;;7373242;19;20372;-49
2022/05/03 08:47:46;;;;;;;5.57;5.03;;;24.60;43.60;;;;;;7373521;19;20407;-48
2022/05/03 08:50:22;;;;;;;5.03;4.53;;;24.70;45.00;;;;;;7375854;19;20425;-50
2022/05/03 08:52:58;;;;;;;7.30;5.67;;;25.00;43.70;;;;;;7380839;19;20379;-48
2022/05/03 08:55:30;;;;;;;6.23;5.70;;;25.20;42.90;;;;;;7381802;19;20988;-48
2022/05/03 08:58:02;;;;;;;5.10;4.70;;;25.40;40.30;;;;;;7378232;19;20416;-48
2022/05/03 09:00:33;;;;;;;5.10;4.57;;;25.20;40.90;;;;;;7384241;19;21033;-48
2022/05/03 09:03:03;;;;;;;5.07;4.40;;;25.40;41.10;;;;;;7381913;19;20379;-48
2022/05/03 09:05:32;;;;;;;6.00;4.90;;;25.80;39.70;;;;;;7382908;19;20376;-46
2022/05/03 09:08:04;;;;;;;6.30;5.80;;;26.20;39.80;;;;;;7381393;19;20964;-48
2022/05/03 09:10:36;;;;;;;5.70;5.20;;;26.40;38.50;;;;;;7380714;19;20384;-48
2022/05/03 09:13:22;;;;;;;5.63;5.00;;;26.50;38.70;;;;;;7380442;19;20375;-47
2022/05/03 09:15:55;;;;;;;5.20;4.80;;;26.70;37.20;;;;;;7381800;19;20399;-49
2022/05/03 09:18:28;;;;;;;3.87;3.57;;;26.20;37.70;;;;;;7378295;19;20443;-48
2022/05/03 09:23:53;;;;;;;8.17;5.47;;;26.40;36.80;;;;;;7378867;19;20424;-47
2022/05/03 09:26:23;;;;;;;6.30;4.83;;;26.70;37.00;;;;;;7378428;19;20376;-47
2022/05/03 09:29:03;;;;;;;8.20;6.10;;;27.10;36.60;;;;;;7379874;19;20497;-48
2022/05/03 09:31:39;;;;;;;5.80;5.30;;;26.70;36.80;;;;;;7380241;19;20413;-48
2022/05/03 09:34:23;;;;;;;6.23;5.57;;;26.60;37.60;;;;;;7380769;19;20781;-47
2022/05/03 09:36:58;;;;;;;5.13;4.50;;;26.80;36.80;;;;;;7380694;19;20376;-48
2022/05/03 09:39:32;;;;;;;5.30;4.80;;;26.70;36.60;;;;;;7382486;19;21028;-48
2022/05/03 09:42:09;;;;;;;4.90;4.40;;;26.50;36.60;;;;;;7378160;19;21273;-49
2022/05/03 09:44:55;;;;;;;4.57;4.17;;;26.50;36.40;;;;;;7380633;19;20387;-48
2022/05/03 09:47:26;;;;;;;6.70;4.93;;;26.10;37.80;;;;;;7381744;19;20372;-48
2022/05/03 09:49:56;;;;;;;4.50;4.20;;;25.80;38.20;;;;;;7376887;19;20451;-48
2022/05/03 09:52:28;;;;;;;5.80;5.10;;;25.60;37.80;;;;;;7380894;19;20436;-48
2022/05/03 09:54:59;;;;;;;5.17;4.13;;;25.50;38.30;;;;;;7379100;19;20376;-48
2022/05/03 09:57:31;;;;;;;4.33;3.80;;;25.60;38.00;;;;;;7379951;19;20368;-48
2022/05/03 10:00:08;;;;;;;4.40;4.00;;;26.10;37.50;;;;;;7381348;19;20870;-48
2022/05/03 10:02:48;;;;;;;5.23;4.43;;;26.30;36.60;;;;;;7376139;19;20451;-48
2022/05/03 10:05:20;;;;;;;5.17;4.43;;;26.40;35.90;;;;;;7380380;19;20364;-48
2022/05/03 10:07:51;;;;;;;4.50;4.10;;;26.70;36.10;;;;;;7381633;19;20368;-45
2022/05/03 10:10:25;;;;;;;4.73;4.30;;;27.30;35.20;;;;;;7376396;19;20377;-48
2022/05/03 10:12:58;;;;;;;4.53;4.13;;;27.50;34.90;;;;;;7378609;19;20368;-47
2022/05/03 10:21:15;;;;;;;4.40;3.63;;;27.80;33.90;;;;;;7375947;19;20381;-47
2022/05/03 10:24:04;;;;;;;4.47;3.30;;;29.00;34.10;;;;;;7377290;19;20399;-48
2022/05/03 10:27:01;;;;;;;4.73;3.70;;;30.20;31.50;;;;;;7377163;19;20416;-49
2022/05/03 10:29:33;;;;;;;3.60;3.30;;;31.10;30.50;;;;;;7377172;19;20368;-49
2022/05/03 10:32:15;;;;;;;4.30;3.90;;;31.90;28.40;;;;;;7379283;19;20459;-46
2022/05/03 10:34:56;;;;;;;4.10;3.80;;;32.70;28.50;;;;;;7378111;19;20415;-46
2022/05/03 10:37:56;;;;;;;5.07;4.43;;;33.90;27.20;;;;;;7379378;19;20901;-47
2022/05/03 10:40:34;;;;;;;5.00;3.93;;;34.70;26.40;;;;;;7377598;19;20939;-46
2022/05/03 10:43:09;;;;;;;7.70;4.70;;;35.40;25.80;;;;;;7379243;19;20415;-48
2022/05/03 10:46:00;;;;;;;4.27;3.97;;;34.60;25.70;;;;;;7373989;19;20425;-46
2022/05/03 10:48:36;;;;;;;4.23;3.93;;;34.90;25.40;;;;;;7377694;19;20415;-46
2022/05/03 10:51:07;;;;;;;4.07;3.73;;;35.50;24.80;;;;;;7380390;19;21025;-48
2022/05/03 10:53:40;;;;;;;3.90;3.60;;;36.30;24.60;;;;;;7377791;19;20726;-48
2022/05/03 10:56:23;;;;;;;3.60;3.40;;;36.60;23.70;;;;;;7375778;19;20406;-47
2022/05/03 10:59:15;;;;;;;7.53;4.37;;;36.90;23.70;;;;;;7377330;19;20911;-49
2022/05/03 11:02:11;;;;;;;4.70;4.30;;;37.70;22.80;;;;;;7377985;19;20786;-46
2022/05/03 11:05:11;;;;;;;4.73;4.33;;;37.00;23.00;;;;;;7378668;19;20376;-48
2022/05/03 11:08:18;;;;;;;5.50;4.27;;;37.00;22.60;;;;;;7379146;19;20376;-48
2022/05/03 11:10:48;;;;;;;5.20;4.80;;;36.90;22.80;;;;;;7376321;19;20910;-48
2022/05/03 11:13:38;;;;;;;5.40;4.90;;;36.80;22.60;;;;;;7377245;19;20408;-48
2022/05/03 11:16:34;;;;;;;4.27;3.90;;;37.50;22.00;;;;;;7377783;19;20372;-50
2022/05/03 11:19:11;;;;;;;4.87;4.40;;;38.40;21.70;;;;;;7376328;19;20436;-49
2022/05/03 11:21:41;;;;;;;5.43;4.90;;;38.80;22.20;;;;;;7376029;19;20368;-47
2022/05/03 11:24:19;;;;;;;4.20;3.90;;;39.30;21.30;;;;;;7373834;19;20432;-48
2022/05/03 11:26:52;;;;;;;3.33;3.03;;;39.00;21.40;;;;;;7372951;19;20787;-48
2022/05/03 11:29:30;;;;;;;4.33;3.27;;;39.20;21.10;;;;;;7377838;19;20410;-48
2022/05/03 11:32:01;;;;;;;3.53;3.23;;;39.30;21.40;;;;;;7374766;19;20420;-48
2022/05/03 11:34:32;;;;;;;3.20;2.80;;;39.30;20.90;;;;;;7378923;19;21324;-48
2022/05/03 11:37:07;;;;;;;4.10;3.23;;;39.00;20.70;;;;;;7377842;19;20377;-47
2022/05/03 11:39:40;;;;;;;4.23;3.80;;;38.30;20.80;;;;;;7374574;19;20407;-48
2022/05/03 11:42:12;;;;;;;4.30;3.73;;;36.70;22.10;;;;;;7375996;19;20372;-47
2022/05/03 11:44:45;;;;;;;3.97;3.67;;;35.60;23.20;;;;;;7377382;19;20390;-48
2022/05/03 11:47:17;;;;;;;4.00;3.70;;;35.50;23.40;;;;;;7376801;19;20380;-48
2022/05/03 11:49:49;;;;;;;3.40;3.20;;;36.40;22.90;;;;;;7373820;19;20402;-49
2022/05/03 11:57:45;;;;;;;3.53;3.23;;;38.60;21.50;;;;;;7374431;19;21304;-48
2022/05/03 12:00:16;;;;;;;3.30;3.00;;;38.50;20.70;;;;;;7376562;19;20372;-48
2022/05/03 12:02:46;;;;;;;4.87;4.37;;;38.70;20.70;;;;;;7375881;19;20465;-48
2022/05/03 12:05:20;;;;;;;3.67;3.30;;;39.40;19.30;;;;;;7373921;19;20456;-48
2022/05/03 12:07:51;;;;;;;3.70;3.40;;;38.60;19.90;;;;;;7377947;19;20637;-49
2022/05/03 12:10:27;;;;;;;5.07;3.47;;;38.90;20.20;;;;;;7376116;19;20376;-48
2022/05/03 12:13:12;;;;;;;3.10;2.80;;;39.70;19.80;;;;;;7376892;19;20379;-48
2022/05/03 12:15:43;;;;;;;3.60;3.30;;;39.60;19.40;;;;;;7376265;19;20901;-48
2022/05/03 12:18:18;;;;;;;4.90;3.10;;;39.30;19.50;;;;;;7374787;19;20432;-47
2022/05/03 12:20:53;;;;;;;3.60;3.30;;;38.20;20.30;;;;;;7374865;19;20767;-47
2022/05/03 12:23:25;;;;;;;3.40;3.20;;;38.50;21.50;;;;;;7373854;19;20396;-48
2022/05/03 12:25:59;;;;;;;3.80;3.23;;;38.60;20.40;;;;;;7373548;19;20368;-47
2022/05/03 12:28:38;;;;;;;3.40;3.10;;;38.80;20.20;;;;;;7380739;19;20383;-47
2022/05/03 12:31:14;;;;;;;3.50;3.10;;;37.30;22.10;;;;;;7382530;19;20917;-46
2022/05/03 12:33:48;;;;;;;5.63;4.50;;;35.90;23.70;;;;;;7383062;19;20451;-47
2022/05/03 12:36:31;;;;;;;4.27;3.87;;;34.20;24.70;;;;;;7384939;19;20813;-48
2022/05/03 12:39:11;;;;;;;5.13;3.50;;;33.10;26.00;;;;;;7377875;19;20416;-46
2022/05/03 12:41:44;;;;;;;3.87;3.57;;;31.70;27.00;;;;;;7383942;19;20763;-47
2022/05/03 12:44:18;;;;;;;5.00;4.50;;;30.70;28.00;;;;;;7383991;19;20367;-47
2022/05/03 12:46:47;;;;;;;8.07;4.00;;;29.60;29.40;;;;;;7382816;19;20391;-45
2022/05/03 12:49:17;;;;;;;3.43;3.13;;;28.60;30.90;;;;;;7380207;19;20424;-48
2022/05/03 12:51:49;;;;;;;4.30;3.90;;;27.60;32.50;;;;;;7384239;19;20383;-48
2022/05/03 12:54:18;;;;;;;5.30;3.43;;;26.80;34.00;;;;;;7379733;19;20401;-46
2022/05/03 12:59:37;;;;;;;4.10;3.70;;;24.40;36.50;;;;;;7380284;19;20363;-46
2022/05/03 13:02:10;;;;;;;4.13;3.00;;;23.60;39.10;;;;;;7381203;19;20384;-46
2022/05/03 13:04:42;;;;;;;4.17;3.27;;;22.90;40.20;;;;;;7382782;19;20423;-46
2022/05/03 13:07:11;;;;;;;6.03;3.77;;;22.30;44.50;;;;;;7379645;19;20408;-48
2022/05/03 13:09:43;;;;;;;3.87;3.30;;;21.80;45.60;;;;;;7377785;19;20420;-47
2022/05/03 13:12:15;;;;;;;5.53;3.20;;;21.40;47.70;;;;;;7383119;19;20375;-48
2022/05/03 13:14:45;;;;;;;5.30;4.10;;;20.90;49.60;;;;;;7378112;19;20383;-46
2022/05/03 13:17:17;;;;;;;4.20;3.53;;;20.70;50.90;;;;;;7353312;19;20405;-48
2022/05/03 13:19:46;;;;;;;6.27;3.70;;;20.10;52.00;;;;;;7375636;19;20507;-46
2022/05/03 13:22:16;;;;;;;5.60;4.23;;;19.70;52.60;;;;;;7380163;19;20371;-46
2022/05/03 13:24:48;;;;;;;6.80;4.73;;;19.60;53.80;;;;;;7379660;19;20378;-49
2022/05/03 13:27:22;;;;;;;4.83;3.57;;;19.30;54.40;;;;;;7380196;19;20508;-49
2022/05/03 13:29:51;;;;;;;5.43;3.60;;;19.10;55.50;;;;;;7382441;19;21207;-49
2022/05/03 13:32:21;;;;;;;4.37;3.67;;;19.00;56.20;;;;;;7381609;19;20383;-47
2022/05/03 13:34:50;;;;;;;6.00;3.80;;;18.90;56.60;;;;;;7379720;19;20810;-47
2022/05/03 13:40:33;;;;;;;4.53;3.43;;;18.70;58.10;;;;;;7380165;19;20954;-47
2022/05/03 13:43:06;;;;;;;6.60;4.13;;;18.60;58.70;;;;;;7378804;19;20764;-48
2022/05/03 13:45:36;;;;;;;4.33;3.93;;;18.70;58.10;;;;;;7380103;19;20413;-48
2022/05/03 13:48:09;;;;;;;4.00;3.70;;;18.80;58.20;;;;;;7382198;19;20380;-49
2022/05/03 13:50:42;;;;;;;7.30;4.17;;;18.60;59.60;;;;;;7381433;19;20432;-49
2022/05/03 13:53:12;;;;;;;4.43;3.97;;;18.50;60.40;;;;;;7377670;19;20420;-48
2022/05/03 13:55:42;;;;;;;5.10;4.57;;;18.60;61.00;;;;;;7380417;19;20364;-48